High temp

Not for real navigation. The accuracy of this data is not assured See disclaimer for more information



ICAO NAME COUNTRY WIND Kt GUST Kt VIS m TEMP/DEW C BARO METAR
FKKR Garoua Cameroon 8 0 6000 38/-1 29.80 FKKR 251300Z 08008KT 6000 NSC 38/M01 Q1009 NOSIG
KQKR 8 11 8000 38/-5 29.85 KQKR 251256Z AUTO 11008G11KT 8000 HZ SCT003 BKN005 38/M05 A2985 RMK AO2 CIG 003V005 SLPNO T03781052
FTTA Sarh Chad 12 0 9999 38/4 29.85 FTTA 251300Z 36012KT CAVOK 38/04 Q1011
DFFD Ouagadougou Burkina Faso 11 0 2500 37/0 29.85 DFFD 251300Z 15011KT 2500 DU NSC 37/00 Q1011 TEMPO 3500 DU
GASN San Mali 4 0 6000 37/4 29.92 GASN 251200Z 04004KT 6000 NSC 37/04 Q////

Show more